Time,TemperatureF,DewpointF,PressureIn,WindDirection,WindDirectionDegrees,WindSpeedMPH,WindSpeedGustMPH,Humidity,HourlyPrecipIn,Conditions,Clouds,dailyrainin,SoftwareType,DateUTC
2013-04-09 00:00:00,49.0,40.0,-100.00,North,352,8.0,-999.0,71,0.00,,,-99.99,,2013-04-09 07:00:00,
2013-04-09 00:22:00,49.0,40.0,-100.00,North,352,8.0,-999.0,71,0.00,,,-99.99,,2013-04-09 07:22:00,
2013-04-09 00:32:00,49.0,40.0,-100.00,North,352,8.0,-999.0,71,0.00,,,-99.99,,2013-04-09 07:32:00,
2013-04-09 00:42:00,49.0,40.0,-100.00,North,352,8.0,-999.0,71,0.00,,,-99.99,,2013-04-09 07:42:00,
2013-04-09 00:52:00,49.0,40.0,-100.00,North,352,8.0,-999.0,71,0.00,,,-99.99,,2013-04-09 07:52:00,
2013-04-09 01:00:00,49.0,40.0,-100.00,North,1,8.0,-999.0,73,0.00,,,-99.99,,2013-04-09 08:00:00,
2013-04-09 01:22:00,49.0,40.0,-100.00,North,1,8.0,-999.0,73,0.00,,,-99.99,,2013-04-09 08:22:00,
2013-04-09 01:32:00,49.0,40.0,-100.00,North,1,8.0,-999.0,73,0.00,,,-99.99,,2013-04-09 08:32:00,
2013-04-09 01:42:00,49.0,40.0,-100.00,North,1,8.0,-999.0,73,0.00,,,-99.99,,2013-04-09 08:42:00,
2013-04-09 01:52:00,49.0,40.0,-100.00,North,1,8.0,-999.0,73,0.00,,,-99.99,,2013-04-09 08:52:00,
2013-04-09 02:00:00,48.0,40.0,-100.00,North,352,7.0,-999.0,75,0.00,,,-99.99,,2013-04-09 09:00:00,
2013-04-09 02:22:00,48.0,40.0,-100.00,North,352,7.0,-999.0,75,0.00,,,-99.99,,2013-04-09 09:22:00,
2013-04-09 02:33:00,48.0,40.0,-100.00,North,352,7.0,-999.0,75,0.00,,,-99.99,,2013-04-09 09:33:00,
2013-04-09 02:52:00,48.0,40.0,-100.00,North,352,7.0,-999.0,75,0.00,,,-99.99,,2013-04-09 09:52:00,
2013-04-09 03:00:00,47.0,40.0,-100.00,North,350,11.0,-999.0,76,0.00,,,-99.99,,2013-04-09 10:00:00,
2013-04-09 03:24:00,47.0,40.0,-100.00,North,350,11.0,-999.0,76,0.00,,,-99.99,,2013-04-09 10:24:00,
2013-04-09 03:33:00,47.0,40.0,-100.00,North,350,11.0,-999.0,76,0.00,,,-99.99,,2013-04-09 10:33:00,
2013-04-09 03:43:00,47.0,40.0,-100.00,North,350,11.0,-999.0,76,0.00,,,-99.99,,2013-04-09 10:43:00,
2013-04-09 03:53:00,47.0,40.0,-100.00,North,350,11.0,-999.0,76,0.00,,,-99.99,,2013-04-09 10:53:00,
2013-04-09 04:00:00,47.0,40.0,-100.00,North,4,11.0,-999.0,77,0.00,,,-99.99,,2013-04-09 11:00:00,
2013-04-09 04:22:00,47.0,40.0,-100.00,North,4,11.0,-999.0,77,0.00,,,-99.99,,2013-04-09 11:22:00,
2013-04-09 04:32:00,47.0,40.0,-100.00,North,4,11.0,-999.0,77,0.00,,,-99.99,,2013-04-09 11:32:00,
2013-04-09 04:42:00,47.0,40.0,-100.00,North,4,11.0,-999.0,77,0.00,,,-99.99,,2013-04-09 11:42:00,
2013-04-09 04:52:00,47.0,40.0,-100.00,North,4,11.0,-999.0,77,0.00,,,-99.99,,2013-04-09 11:52:00,
2013-04-09 05:00:00,46.0,40.0,-100.00,North,356,13.0,-999.0,77,0.00,,,-99.99,,2013-04-09 12:00:00,
2013-04-09 05:22:00,46.0,40.0,-100.00,North,356,13.0,-999.0,77,0.00,,,-99.99,,2013-04-09 12:22:00,
2013-04-09 05:33:00,46.0,40.0,-100.00,North,356,13.0,-999.0,77,0.00,,,-99.99,,2013-04-09 12:33:00,
2013-04-09 05:43:00,46.0,40.0,-100.00,North,356,13.0,-999.0,77,0.00,,,-99.99,,2013-04-09 12:43:00,
2013-04-09 05:53:00,46.0,40.0,-100.00,North,356,13.0,-999.0,77,0.00,,,-99.99,,2013-04-09 12:53:00,
2013-04-09 06:00:00,46.0,40.0,-100.00,North,359,8.0,-999.0,77,0.00,,,-99.99,,2013-04-09 13:00:00,
2013-04-09 06:23:00,46.0,40.0,-100.00,North,359,8.0,-999.0,77,0.00,,,-99.99,,2013-04-09 13:23:00,
2013-04-09 06:33:00,46.0,40.0,-100.00,North,359,8.0,-999.0,77,0.00,,,-99.99,,2013-04-09 13:33:00,
2013-04-09 06:43:00,46.0,40.0,-100.00,North,359,8.0,-999.0,77,0.00,,,-99.99,,2013-04-09 13:43:00,
2013-04-09 06:53:00,46.0,40.0,-100.00,North,359,8.0,-999.0,77,0.00,,,-99.99,,2013-04-09 13:53:00,
2013-04-09 07:00:00,45.0,39.0,-100.00,NNE,14,12.0,-999.0,78,0.00,,,-99.99,,2013-04-09 14:00:00,
2013-04-09 07:22:00,45.0,39.0,-100.00,NNE,14,12.0,-999.0,78,0.00,,,-99.99,,2013-04-09 14:22:00,
2013-04-09 07:33:00,45.0,39.0,-100.00,NNE,14,12.0,-999.0,78,0.00,,,-99.99,,2013-04-09 14:33:00,
2013-04-09 07:43:00,45.0,39.0,-100.00,NNE,14,12.0,-999.0,78,0.00,,,-99.99,,2013-04-09 14:43:00,
2013-04-09 07:52:00,45.0,39.0,-100.00,NNE,14,12.0,-999.0,78,0.00,,,-99.99,,2013-04-09 14:52:00,
2013-04-09 08:00:00,46.0,39.0,-100.00,North,1,14.0,-999.0,77,0.00,,,-99.99,,2013-04-09 15:00:00,
2013-04-09 08:23:00,46.0,39.0,-100.00,North,1,14.0,-999.0,77,0.00,,,-99.99,,2013-04-09 15:23:00,
2013-04-09 08:34:00,46.0,39.0,-100.00,North,1,14.0,-999.0,77,0.00,,,-99.99,,2013-04-09 15:34:00,
2013-04-09 08:43:00,46.0,39.0,-100.00,North,1,14.0,-999.0,77,0.00,,,-99.99,,2013-04-09 15:43:00,
2013-04-09 08:53:00,46.0,39.0,-100.00,North,1,14.0,-999.0,77,0.00,,,-99.99,,2013-04-09 15:53:00,
2013-04-09 09:00:00,49.0,40.0,-100.00,NNE,25,7.0,-999.0,71,0.00,,,-99.99,,2013-04-09 16:00:00,
2013-04-09 09:23:00,49.0,40.0,-100.00,NNE,25,7.0,-999.0,71,0.00,,,-99.99,,2013-04-09 16:23:00,
2013-04-09 09:34:00,49.0,40.0,-100.00,NNE,25,7.0,-999.0,71,0.00,,,-99.99,,2013-04-09 16:34:00,
2013-04-09 09:42:00,49.0,40.0,-100.00,NNE,25,7.0,-999.0,71,0.00,,,-99.99,,2013-04-09 16:42:00,
2013-04-09 09:53:00,49.0,40.0,-100.00,NNE,25,7.0,-999.0,71,0.00,,,-99.99,,2013-04-09 16:53:00,
2013-04-09 10:00:00,53.0,41.0,-100.00,NNE,19,11.0,-999.0,61,0.00,,,-99.99,,2013-04-09 17:00:00,
2013-04-09 10:23:00,53.0,41.0,-100.00,NNE,19,11.0,-999.0,61,0.00,,,-99.99,,2013-04-09 17:23:00,
2013-04-09 10:33:00,53.0,41.0,-100.00,NNE,19,11.0,-999.0,61,0.00,,,-99.99,,2013-04-09 17:33:00,
2013-04-09 10:43:00,53.0,41.0,-100.00,NNE,19,11.0,-999.0,61,0.00,,,-99.99,,2013-04-09 17:43:00,
2013-04-09 10:53:00,53.0,41.0,-100.00,NNE,19,11.0,-999.0,61,0.00,,,-99.99,,2013-04-09 17:53:00,
2013-04-09 11:00:00,59.0,40.0,-100.00,NNW,334,6.0,-999.0,47,0.00,,,-99.99,,2013-04-09 18:00:00,
2013-04-09 11:23:00,59.0,40.0,-100.00,NNW,334,6.0,-999.0,47,0.00,,,-99.99,,2013-04-09 18:23:00,
2013-04-09 11:33:00,59.0,40.0,-100.00,NNW,334,6.0,-999.0,47,0.00,,,-99.99,,2013-04-09 18:33:00,
2013-04-09 11:43:00,59.0,40.0,-100.00,NNW,334,6.0,-999.0,47,0.00,,,-99.99,,2013-04-09 18:43:00,
2013-04-09 11:53:00,59.0,40.0,-100.00,NNW,334,6.0,-999.0,47,0.00,,,-99.99,,2013-04-09 18:53:00,
2013-04-09 12:00:00,63.0,40.0,-100.00,NNW,334,7.0,-999.0,42,0.00,,,-99.99,,2013-04-09 19:00:00,
2013-04-09 12:32:00,63.0,40.0,-100.00,NNW,334,7.0,-999.0,42,0.00,,,-99.99,,2013-04-09 19:32:00,
2013-04-09 12:42:00,63.0,40.0,-100.00,NNW,334,7.0,-999.0,42,0.00,,,-99.99,,2013-04-09 19:42:00,
2013-04-09 12:52:00,63.0,40.0,-100.00,NNW,334,7.0,-999.0,42,0.00,,,-99.99,,2013-04-09 19:52:00,
2013-04-09 13:00:00,64.0,45.0,-100.00,WSW,246,14.0,-999.0,51,0.00,,,-99.99,,2013-04-09 20:00:00,
2013-04-09 13:23:00,64.0,45.0,-100.00,WSW,246,14.0,-999.0,51,0.00,,,-99.99,,2013-04-09 20:23:00,
2013-04-09 13:34:00,64.0,45.0,-100.00,WSW,246,14.0,-999.0,51,0.00,,,-99.99,,2013-04-09 20:34:00,
2013-04-09 13:43:00,64.0,45.0,-100.00,WSW,246,14.0,-999.0,51,0.00,,,-99.99,,2013-04-09 20:43:00,
2013-04-09 13:52:00,64.0,45.0,-100.00,WSW,246,14.0,-999.0,51,0.00,,,-99.99,,2013-04-09 20:52:00,
2013-04-09 14:00:00,66.0,46.0,-100.00,WSW,247,15.0,-999.0,48,0.00,,,-99.99,,2013-04-09 21:00:00,
2013-04-09 14:33:00,66.0,46.0,-100.00,WSW,247,15.0,-999.0,48,0.00,,,-99.99,,2013-04-09 21:33:00,
2013-04-09 14:42:00,66.0,46.0,-100.00,WSW,247,15.0,-999.0,48,0.00,,,-99.99,,2013-04-09 21:42:00,
2013-04-09 14:52:00,66.0,46.0,-100.00,WSW,247,15.0,-999.0,48,0.00,,,-99.99,,2013-04-09 21:52:00,
2013-04-09 15:00:00,68.0,49.0,-100.00,WSW,241,16.0,-999.0,51,0.00,,,-99.99,,2013-04-09 22:00:00,
2013-04-09 15:23:00,68.0,49.0,-100.00,WSW,241,16.0,-999.0,51,0.00,,,-99.99,,2013-04-09 22:23:00,
2013-04-09 15:33:00,68.0,49.0,-100.00,WSW,241,16.0,-999.0,51,0.00,,,-99.99,,2013-04-09 22:33:00,
2013-04-09 15:42:00,68.0,49.0,-100.00,WSW,241,16.0,-999.0,51,0.00,,,-99.99,,2013-04-09 22:42:00,
2013-04-09 15:53:00,68.0,49.0,-100.00,WSW,241,16.0,-999.0,51,0.00,,,-99.99,,2013-04-09 22:53:00,
2013-04-09 16:00:00,71.0,46.0,-100.00,West,262,6.0,-999.0,41,0.00,,,-99.99,,2013-04-09 23:00:00,
2013-04-09 16:23:00,71.0,46.0,-100.00,West,262,6.0,-999.0,41,0.00,,,-99.99,,2013-04-09 23:23:00,
2013-04-09 16:33:00,71.0,46.0,-100.00,West,262,6.0,-999.0,41,0.00,,,-99.99,,2013-04-09 23:33:00,
2013-04-09 16:42:00,71.0,46.0,-100.00,West,262,6.0,-999.0,41,0.00,,,-99.99,,2013-04-09 23:42:00,
2013-04-09 16:53:00,71.0,46.0,-100.00,West,262,6.0,-999.0,41,0.00,,,-99.99,,2013-04-09 23:53:00,
2013-04-09 17:00:00,71.0,47.0,-100.00,WNW,294,11.0,-999.0,42,0.00,,,-99.99,,2013-04-10 00:00:00,
2013-04-09 17:33:00,71.0,47.0,-100.00,WNW,294,11.0,-999.0,42,0.00,,,-99.99,,2013-04-10 00:33:00,
2013-04-09 17:42:00,71.0,47.0,-100.00,WNW,294,11.0,-999.0,42,0.00,,,-99.99,,2013-04-10 00:42:00,
2013-04-09 17:52:00,71.0,47.0,-100.00,WNW,294,11.0,-999.0,42,0.00,,,-99.99,,2013-04-10 00:52:00,
2013-04-09 18:00:00,70.0,48.0,-100.00,NW,304,6.0,-999.0,46,0.00,,,-99.99,,2013-04-10 01:00:00,
2013-04-09 18:23:00,70.0,48.0,-100.00,NW,304,6.0,-999.0,46,0.00,,,-99.99,,2013-04-10 01:23:00,
2013-04-09 18:33:00,70.0,48.0,-100.00,NW,304,6.0,-999.0,46,0.00,,,-99.99,,2013-04-10 01:33:00,
2013-04-09 18:43:00,70.0,48.0,-100.00,NW,304,6.0,-999.0,46,0.00,,,-99.99,,2013-04-10 01:43:00,
2013-04-09 18:52:00,70.0,48.0,-100.00,NW,304,6.0,-999.0,46,0.00,,,-99.99,,2013-04-10 01:52:00,
2013-04-09 19:00:00,67.0,49.0,-100.00,WNW,298,8.0,-999.0,51,0.00,,,-99.99,,2013-04-10 02:00:00,
2013-04-09 19:23:00,67.0,49.0,-100.00,WNW,298,8.0,-999.0,51,0.00,,,-99.99,,2013-04-10 02:23:00,
2013-04-09 19:33:00,67.0,49.0,-100.00,WNW,298,8.0,-999.0,51,0.00,,,-99.99,,2013-04-10 02:33:00,
2013-04-09 19:43:00,67.0,49.0,-100.00,WNW,298,8.0,-999.0,51,0.00,,,-99.99,,2013-04-10 02:43:00,
2013-04-09 19:52:00,67.0,49.0,-100.00,WNW,298,8.0,-999.0,51,0.00,,,-99.99,,2013-04-10 02:52:00,
2013-04-09 20:00:00,70.0,42.0,-100.00,NNW,341,4.0,-999.0,36,0.00,,,-99.99,,2013-04-10 03:00:00,
2013-04-09 20:22:00,70.0,42.0,-100.00,NNW,341,4.0,-999.0,36,0.00,,,-99.99,,2013-04-10 03:22:00,
2013-04-09 20:33:00,70.0,42.0,-100.00,NNW,341,4.0,-999.0,36,0.00,,,-99.99,,2013-04-10 03:33:00,
2013-04-09 20:43:00,70.0,42.0,-100.00,NNW,341,4.0,-999.0,36,0.00,,,-99.99,,2013-04-10 03:43:00,
2013-04-09 20:52:00,70.0,42.0,-100.00,NNW,341,4.0,-999.0,36,0.00,,,-99.99,,2013-04-10 03:52:00,
2013-04-09 21:00:00,66.0,43.0,-100.00,NNW,345,5.0,-999.0,43,0.00,,,-99.99,,2013-04-10 04:00:00,
2013-04-09 21:23:00,66.0,43.0,-100.00,NNW,345,5.0,-999.0,43,0.00,,,-99.99,,2013-04-10 04:23:00,
2013-04-09 21:33:00,66.0,43.0,-100.00,NNW,345,5.0,-999.0,43,0.00,,,-99.99,,2013-04-10 04:33:00,
2013-04-09 21:43:00,66.0,43.0,-100.00,NNW,345,5.0,-999.0,43,0.00,,,-99.99,,2013-04-10 04:43:00,
2013-04-09 21:53:00,66.0,43.0,-100.00,NNW,345,5.0,-999.0,43,0.00,,,-99.99,,2013-04-10 04:53:00,
2013-04-09 22:00:00,63.0,42.0,-100.00,North,10,11.0,-999.0,47,0.00,,,-99.99,,2013-04-10 05:00:00,
2013-04-09 22:23:00,63.0,42.0,-100.00,North,10,11.0,-999.0,47,0.00,,,-99.99,,2013-04-10 05:23:00,
2013-04-09 22:33:00,63.0,42.0,-100.00,North,10,11.0,-999.0,47,0.00,,,-99.99,,2013-04-10 05:33:00,
2013-04-09 22:43:00,63.0,42.0,-100.00,North,10,11.0,-999.0,47,0.00,,,-99.99,,2013-04-10 05:43:00,
2013-04-09 22:53:00,63.0,42.0,-100.00,North,10,11.0,-999.0,47,0.00,,,-99.99,,2013-04-10 05:53:00,
2013-04-09 23:00:00,61.0,42.0,-100.00,North,3,13.0,-999.0,49,0.00,,,-99.99,,2013-04-10 06:00:00,
2013-04-09 23:22:00,61.0,42.0,-100.00,North,3,13.0,-999.0,49,0.00,,,-99.99,,2013-04-10 06:22:00,
2013-04-09 23:32:00,61.0,42.0,-100.00,North,3,13.0,-999.0,49,0.00,,,-99.99,,2013-04-10 06:32:00,
2013-04-09 23:42:00,61.0,42.0,-100.00,North,3,13.0,-999.0,49,0.00,,,-99.99,,2013-04-10 06:42:00,
2013-04-09 23:52:00,61.0,42.0,-100.00,North,3,13.0,-999.0,49,0.00,,,-99.99,,2013-04-10 06:52:00,